Time;durP1;ratioP1;P1;durP2;ratioP2;P2;SDS_P1;SDS_P2;PMS_P1;PMS_P2;Temp;Humidity;BMP_temperature;BMP_pressure;BME280_temperature;BME280_humidity;BME280_pressure;Samples;Min_cycle;Max_cycle;Signal;HPM_P1;HPM_P2
2022/11/17 00:00:24;;;;;;;2.70;1.42;;;23.40;54.80;;;;;;5030362;28;20030;-60
2022/11/17 00:02:50;;;;;;;2.42;1.52;;;23.40;54.80;;;;;;5033027;28;20028;-61
2022/11/17 00:05:16;;;;;;;3.85;1.70;;;23.40;54.80;;;;;;5025968;28;20104;-60
2022/11/17 00:07:47;;;;;;;2.33;1.52;;;23.40;54.70;;;;;;5026641;28;20427;-61
2022/11/17 00:10:13;;;;;;;1.98;1.30;;;23.40;54.70;;;;;;5031728;28;20141;-62
2022/11/17 00:15:24;;;;;;;3.03;1.30;;;23.40;54.70;;;;;;5040528;28;20567;-61
2022/11/17 00:21:17;;;;;;;2.78;1.60;;;23.40;54.60;;;;;;5035346;28;20111;-61
2022/11/17 00:23:23;;;;;;;2.70;1.60;;;23.40;54.60;;;;;;5032109;28;20489;-61
2022/11/17 00:25:49;;;;;;;2.22;1.20;;;23.40;54.70;;;;;;5017402;28;20113;-61
2022/11/17 00:28:14;;;;;;;2.17;1.40;;;23.40;54.70;;;;;;5033801;28;20120;-61
2022/11/17 00:36:08;;;;;;;2.33;1.25;;;23.30;54.70;;;;;;5031061;28;20037;-61
2022/11/17 00:38:33;;;;;;;2.20;1.35;;;23.20;54.70;;;;;;5034457;28;20030;-61
2022/11/17 00:40:59;;;;;;;2.50;1.40;;;23.20;54.70;;;;;;5030820;28;20021;-60
2022/11/17 00:43:25;;;;;;;2.38;1.40;;;23.20;54.70;;;;;;5031106;28;20504;-60
2022/11/17 00:45:50;;;;;;;2.03;1.10;;;23.20;54.70;;;;;;5026840;28;20033;-60
2022/11/17 00:48:16;;;;;;;2.20;1.40;;;23.20;54.80;;;;;;5031752;28;20025;-62
2022/11/17 00:50:41;;;;;;;2.35;1.40;;;23.10;54.80;;;;;;5034462;28;20029;-63
2022/11/17 00:53:07;;;;;;;1.33;1.02;;;23.10;54.80;;;;;;5032219;28;20465;-61
2022/11/17 00:55:33;;;;;;;2.33;1.25;;;23.10;54.90;;;;;;5035092;28;20038;-61
2022/11/17 00:57:58;;;;;;;2.47;1.30;;;23.00;54.80;;;;;;5038848;28;20027;-62
2022/11/17 01:00:24;;;;;;;1.65;1.13;;;23.00;54.90;;;;;;5026065;28;20048;-60
2022/11/17 01:02:49;;;;;;;1.98;1.20;;;23.00;54.90;;;;;;5039977;28;20029;-61
2022/11/17 01:05:15;;;;;;;1.80;1.30;;;23.00;55.00;;;;;;5036547;28;20481;-62
2022/11/17 01:07:41;;;;;;;2.33;1.48;;;23.00;55.00;;;;;;5036286;28;20080;-62
2022/11/17 01:10:07;;;;;;;2.38;1.23;;;22.90;55.00;;;;;;5039320;28;20396;-60
2022/11/17 01:12:32;;;;;;;1.70;1.20;;;22.90;55.00;;;;;;5041374;28;20041;-63
2022/11/17 01:14:58;;;;;;;2.17;1.40;;;22.90;55.00;;;;;;5033195;28;20025;-64
2022/11/17 01:17:24;;;;;;;2.10;1.20;;;22.90;55.10;;;;;;5038952;28;20490;-61
2022/11/17 01:19:49;;;;;;;1.50;1.17;;;22.90;55.10;;;;;;5036695;28;20057;-60
2022/11/17 01:22:16;;;;;;;1.92;1.15;;;22.80;55.10;;;;;;5016515;28;20036;-61
2022/11/17 01:24:42;;;;;;;1.67;1.10;;;22.90;55.20;;;;;;5038292;28;20033;-61
2022/11/17 01:27:07;;;;;;;1.83;1.10;;;22.80;55.10;;;;;;5037624;28;20022;-60
2022/11/17 01:29:33;;;;;;;1.77;1.20;;;22.80;55.20;;;;;;5039785;28;20491;-59
2022/11/17 01:31:58;;;;;;;2.22;1.30;;;22.80;55.20;;;;;;5038318;28;20045;-60
2022/11/17 01:34:24;;;;;;;2.83;1.30;;;22.70;55.20;;;;;;5040796;28;20033;-60
2022/11/17 01:39:34;;;;;;;1.67;1.00;;;22.70;55.30;;;;;;5039027;28;20036;-62
2022/11/17 01:42:10;;;;;;;1.70;1.20;;;22.70;55.30;;;;;;5030279;28;20025;-62
2022/11/17 01:44:55;;;;;;;1.88;1.20;;;22.70;55.30;;;;;;5028826;28;20144;-61
2022/11/17 01:47:35;;;;;;;2.17;1.17;;;22.60;55.40;;;;;;5032657;28;20506;-63
2022/11/17 01:50:27;;;;;;;2.38;1.30;;;22.60;55.40;;;;;;5033750;28;20387;-62
2022/11/17 01:52:58;;;;;;;2.00;1.10;;;22.60;55.40;;;;;;5023073;28;20108;-63
2022/11/17 01:55:27;;;;;;;1.30;0.98;;;22.60;55.50;;;;;;5039251;28;20021;-60
2022/11/17 01:57:57;;;;;;;1.60;1.00;;;22.60;55.50;;;;;;5038729;28;20036;-61
2022/11/17 02:00:23;;;;;;;1.48;1.10;;;22.50;55.50;;;;;;5042645;28;20515;-61
2022/11/17 02:02:50;;;;;;;1.45;1.00;;;22.50;55.50;;;;;;5030931;28;20041;-62
2022/11/17 02:05:47;;;;;;;1.38;1.10;;;22.50;55.60;;;;;;5036723;28;20476;-60
2022/11/17 02:08:14;;;;;;;1.75;1.00;;;22.50;55.60;;;;;;5024794;28;20038;-62
2022/11/17 02:10:41;;;;;;;1.63;1.10;;;22.40;55.70;;;;;;5044229;28;20541;-62
2022/11/17 02:13:08;;;;;;;1.77;1.00;;;22.40;55.70;;;;;;5030051;28;20598;-60
2022/11/17 02:15:33;;;;;;;1.75;1.10;;;22.40;55.70;;;;;;5031465;28;20495;-60
2022/11/17 02:18:00;;;;;;;2.00;1.10;;;22.40;55.80;;;;;;5027687;28;20073;-62
2022/11/17 02:20:31;;;;;;;1.45;1.08;;;22.40;55.80;;;;;;5034553;28;20045;-60
2022/11/17 02:23:12;;;;;;;1.65;1.00;;;22.30;55.80;;;;;;5032546;28;20026;-62
2022/11/17 02:25:44;;;;;;;1.50;1.00;;;22.30;55.90;;;;;;5027101;28;20492;-61
2022/11/17 02:28:16;;;;;;;1.70;1.00;;;22.30;55.90;;;;;;5025961;28;20037;-61
2022/11/17 02:31:07;;;;;;;1.65;1.10;;;22.20;55.90;;;;;;5026668;28;20029;-61
2022/11/17 02:33:32;;;;;;;1.83;1.20;;;22.20;55.90;;;;;;5034867;28;20370;-63
2022/11/17 02:36:05;;;;;;;1.20;0.90;;;22.20;56.50;;;;;;5030828;28;20075;-61
2022/11/17 02:38:39;;;;;;;2.00;1.20;;;22.20;56.00;;;;;;5034756;28;20069;-61
2022/11/17 02:41:10;;;;;;;2.13;1.13;;;22.20;56.10;;;;;;5036354;28;20018;-60
2022/11/17 02:44:02;;;;;;;1.30;1.00;;;22.10;56.10;;;;;;5037110;28;20497;-60
2022/11/17 02:46:37;;;;;;;1.90;1.10;;;22.10;56.10;;;;;;5046290;28;20488;-60
2022/11/17 02:49:11;;;;;;;1.45;1.00;;;22.10;56.20;;;;;;5034420;28;20396;-60
2022/11/17 02:51:38;;;;;;;2.35;1.10;;;22.10;56.20;;;;;;5033934;28;20474;-61
2022/11/17 02:54:04;;;;;;;1.55;1.00;;;22.10;56.30;;;;;;5034953;28;20057;-61
2022/11/17 02:56:30;;;;;;;1.55;1.10;;;22.00;56.30;;;;;;5036360;28;20025;-61
2022/11/17 02:59:01;;;;;;;1.20;0.90;;;22.00;56.40;;;;;;5034739;28;20025;-61
2022/11/17 03:01:40;;;;;;;1.33;0.90;;;22.00;56.40;;;;;;5030234;28;20075;-62
2022/11/17 03:04:29;;;;;;;1.02;0.80;;;22.00;56.50;;;;;;5028389;28;20021;-62
2022/11/17 03:07:15;;;;;;;1.48;1.00;;;21.90;56.40;;;;;;5030607;28;20032;-60
2022/11/17 03:09:45;;;;;;;1.88;1.02;;;21.90;56.50;;;;;;5036444;28;20503;-60
2022/11/17 03:12:13;;;;;;;1.90;1.10;;;21.90;56.50;;;;;;5034173;28;20500;-60
2022/11/17 03:15:01;;;;;;;1.27;0.98;;;21.90;56.50;;;;;;5031938;28;20144;-60
2022/11/17 03:17:58;;;;;;;1.95;1.10;;;21.90;56.60;;;;;;5032800;28;20037;-60
2022/11/17 03:20:30;;;;;;;1.50;1.00;;;21.90;56.60;;;;;;5024611;28;20041;-61
2022/11/17 03:23:03;;;;;;;1.23;1.00;;;21.80;56.60;;;;;;5035226;28;20042;-60
2022/11/17 03:25:33;;;;;;;1.70;1.17;;;21.80;57.20;;;;;;5034697;28;20515;-60
2022/11/17 03:28:04;;;;;;;2.03;1.05;;;21.80;56.70;;;;;;5038047;28;20088;-61
2022/11/17 03:30:33;;;;;;;1.30;0.90;;;21.80;56.70;;;;;;5041434;28;20026;-61
2022/11/17 03:33:04;;;;;;;1.52;1.00;;;21.80;56.70;;;;;;5044182;28;20025;-63
2022/11/17 03:35:34;;;;;;;1.50;1.10;;;21.70;56.60;;;;;;5027547;28;20068;-61
2022/11/17 03:38:09;;;;;;;2.00;1.00;;;21.70;56.70;;;;;;5033758;28;20043;-60
2022/11/17 03:40:38;;;;;;;1.27;1.00;;;21.70;56.80;;;;;;5034838;28;20124;-62
2022/11/17 03:43:07;;;;;;;1.48;1.20;;;21.70;56.80;;;;;;5038544;28;20485;-60
2022/11/17 03:45:45;;;;;;;1.80;1.10;;;21.70;56.80;;;;;;5037664;28;20512;-61
2022/11/17 03:48:33;;;;;;;1.92;1.05;;;21.70;56.90;;;;;;5030392;28;20424;-62
2022/11/17 03:51:09;;;;;;;1.10;0.98;;;21.60;56.80;;;;;;5036505;28;20029;-62
2022/11/17 03:53:35;;;;;;;1.45;1.15;;;21.60;56.80;;;;;;5033487;28;20021;-62
2022/11/17 03:56:15;;;;;;;1.73;1.00;;;21.60;56.80;;;;;;5035780;28;20053;-60
2022/11/17 03:59:02;;;;;;;1.52;0.98;;;21.60;56.80;;;;;;5028530;28;20033;-61
2022/11/17 04:01:29;;;;;;;1.77;1.20;;;21.60;56.80;;;;;;5037750;28;20048;-61
2022/11/17 04:03:55;;;;;;;1.52;1.10;;;21.60;56.90;;;;;;5036246;28;20067;-60
2022/11/17 04:06:21;;;;;;;1.40;0.90;;;21.60;57.40;;;;;;5025301;28;20061;-60
2022/11/17 04:08:47;;;;;;;1.70;1.00;;;21.60;56.90;;;;;;5029230;28;20032;-61
2022/11/17 04:16:41;;;;;;;1.10;0.88;;;21.50;56.90;;;;;;5032496;28;20435;-62
2022/11/17 04:19:07;;;;;;;1.33;0.90;;;21.50;57.00;;;;;;5044759;28;20021;-61
2022/11/17 04:21:32;;;;;;;1.00;0.90;;;21.50;56.90;;;;;;5039516;28;20029;-61
2022/11/17 04:23:58;;;;;;;1.42;0.90;;;21.50;56.90;;;;;;5029141;28;20056;-61
2022/11/17 04:29:08;;;;;;;1.40;1.02;;;21.50;57.00;;;;;;5040464;28;20103;-61
2022/11/17 04:31:33;;;;;;;1.20;1.00;;;21.50;56.90;;;;;;5044543;28;20042;-61
2022/11/17 04:34:04;;;;;;;1.70;1.00;;;21.50;56.90;;;;;;5036977;28;20055;-61
2022/11/17 04:36:33;;;;;;;1.48;0.90;;;21.50;56.90;;;;;;5033522;28;20451;-62
2022/11/17 04:38:59;;;;;;;1.95;0.90;;;21.50;56.90;;;;;;5039424;28;20029;-61
2022/11/17 04:44:13;;;;;;;1.33;0.98;;;21.50;57.00;;;;;;5032375;28;20045;-62
2022/11/17 04:46:39;;;;;;;1.08;0.88;;;21.50;56.90;;;;;;5028328;28;20042;-61
2022/11/17 04:49:06;;;;;;;1.15;0.85;;;21.50;56.90;;;;;;5028538;28;20366;-62
2022/11/17 04:51:33;;;;;;;1.40;0.90;;;21.50;56.90;;;;;;5032257;28;20523;-61
2022/11/17 04:53:59;;;;;;;1.30;0.82;;;21.50;56.90;;;;;;5037526;28;20374;-61
2022/11/17 04:56:25;;;;;;;1.20;0.93;;;21.50;57.00;;;;;;5033105;28;20033;-62
2022/11/17 04:58:51;;;;;;;1.00;0.90;;;21.50;57.50;;;;;;5028525;28;20021;-64
2022/11/17 05:01:18;;;;;;;1.27;0.90;;;21.50;56.90;;;;;;5028171;28;20053;-63
2022/11/17 05:03:48;;;;;;;1.10;1.00;;;21.40;56.90;;;;;;5029023;28;20101;-63
2022/11/17 05:06:16;;;;;;;1.60;0.90;;;21.50;56.90;;;;;;5038504;28;20076;-63
2022/11/17 05:08:42;;;;;;;1.10;0.80;;;21.40;56.90;;;;;;5041930;28;20536;-62
2022/11/17 05:13:53;;;;;;;1.83;0.95;;;21.40;56.90;;;;;;5039351;28;20027;-63
2022/11/17 05:19:05;;;;;;;0.93;0.80;;;21.40;57.40;;;;;;5038074;28;20087;-66
2022/11/17 05:21:31;;;;;;;1.00;0.80;;;21.40;57.00;;;;;;5029835;28;20033;-64
2022/11/17 05:23:57;;;;;;;1.23;0.90;;;21.40;57.00;;;;;;5033755;28;20428;-65
2022/11/17 05:26:26;;;;;;;1.55;0.85;;;21.40;57.00;;;;;;5036743;28;20087;-65
2022/11/17 05:28:54;;;;;;;0.80;0.80;;;21.40;57.10;;;;;;5039429;28;20021;-65
2022/11/17 05:31:20;;;;;;;1.40;0.90;;;21.40;57.60;;;;;;5036972;28;20036;-65
2022/11/17 05:33:46;;;;;;;1.33;0.82;;;21.40;57.70;;;;;;5032347;28;20380;-64
2022/11/17 05:36:12;;;;;;;1.15;0.90;;;21.40;57.10;;;;;;5032331;28;20029;-62
2022/11/17 05:38:38;;;;;;;1.00;0.75;;;21.40;57.10;;;;;;5033009;28;20049;-64
2022/11/17 05:41:04;;;;;;;1.33;0.90;;;21.40;57.10;;;;;;5034251;28;20123;-64
2022/11/17 05:43:29;;;;;;;1.33;0.90;;;21.40;57.20;;;;;;5035147;28;20384;-65
2022/11/17 05:45:55;;;;;;;0.75;0.70;;;21.40;57.20;;;;;;5033601;28;20107;-64
2022/11/17 05:48:21;;;;;;;0.80;0.80;;;21.40;57.20;;;;;;5034094;28;20056;-64
2022/11/17 05:50:46;;;;;;;1.75;0.80;;;21.40;57.20;;;;;;5033345;28;20564;-65
2022/11/17 05:53:12;;;;;;;1.52;0.75;;;21.40;57.20;;;;;;5028881;28;20025;-65
2022/11/17 05:55:38;;;;;;;1.13;0.80;;;21.40;57.30;;;;;;5025370;28;20056;-65
2022/11/17 05:58:09;;;;;;;1.08;0.80;;;21.30;57.20;;;;;;5037831;28;20476;-64
2022/11/17 06:00:37;;;;;;;2.08;0.90;;;21.30;57.20;;;;;;5037455;28;20044;-65
2022/11/17 06:03:08;;;;;;;1.38;1.00;;;21.30;57.20;;;;;;5044195;28;20029;-65
2022/11/17 06:05:34;;;;;;;0.90;0.80;;;21.30;57.30;;;;;;5046444;28;20033;-65
2022/11/17 06:08:00;;;;;;;1.10;0.80;;;21.30;57.30;;;;;;5028751;28;20147;-65
2022/11/17 06:10:26;;;;;;;1.05;0.80;;;21.30;57.30;;;;;;5035404;28;20045;-65
2022/11/17 06:12:51;;;;;;;0.82;0.70;;;21.30;57.30;;;;;;5036895;28;20041;-65
2022/11/17 06:15:17;;;;;;;0.95;0.80;;;21.30;57.30;;;;;;5038909;28;20052;-66
2022/11/17 06:17:53;;;;;;;1.35;0.70;;;21.30;57.30;;;;;;5038230;28;20022;-65
2022/11/17 06:20:27;;;;;;;1.10;0.80;;;21.30;57.40;;;;;;5028687;28;20053;-65
2022/11/17 06:22:56;;;;;;;1.40;0.90;;;21.30;57.30;;;;;;5036983;28;20026;-65
2022/11/17 06:25:22;;;;;;;1.45;0.93;;;21.30;57.40;;;;;;5039151;28;20056;-65
2022/11/17 06:27:49;;;;;;;1.42;0.90;;;21.30;57.40;;;;;;5041126;28;20124;-66
2022/11/17 06:30:15;;;;;;;1.20;0.80;;;21.30;57.40;;;;;;5024091;28;20029;-63
2022/11/17 06:32:42;;;;;;;1.00;0.77;;;21.30;57.40;;;;;;5022718;28;20386;-64
2022/11/17 06:35:10;;;;;;;1.13;0.80;;;21.30;57.40;;;;;;5028828;28;20124;-63
2022/11/17 06:37:35;;;;;;;0.90;0.77;;;21.20;57.30;;;;;;5029963;28;20029;-64
2022/11/17 06:40:01;;;;;;;1.65;0.90;;;21.30;57.40;;;;;;5030576;28;20042;-63
2022/11/17 06:45:11;;;;;;;1.25;0.73;;;21.20;57.40;;;;;;5023025;28;20080;-63
2022/11/17 06:47:37;;;;;;;1.20;0.80;;;21.30;57.50;;;;;;5038389;28;20021;-63
2022/11/17 06:50:03;;;;;;;0.95;0.77;;;21.20;57.40;;;;;;5044669;28;20092;-64
2022/11/17 06:52:29;;;;;;;0.90;0.80;;;21.20;57.40;;;;;;5043791;28;20045;-63
2022/11/17 06:54:54;;;;;;;1.05;0.73;;;21.20;57.50;;;;;;5032849;28;20389;-63
2022/11/17 06:57:20;;;;;;;1.30;0.82;;;21.20;57.50;;;;;;5033238;28;20029;-63
2022/11/17 06:59:46;;;;;;;0.93;0.77;;;21.20;57.50;;;;;;5038565;28;20029;-63
2022/11/17 07:02:11;;;;;;;1.20;0.80;;;21.20;57.50;;;;;;5044183;28;20483;-63
2022/11/17 07:04:37;;;;;;;1.10;0.80;;;21.20;57.50;;;;;;5040150;28;20021;-62
2022/11/17 07:07:02;;;;;;;1.55;0.90;;;21.20;57.50;;;;;;5023793;28;20022;-62
2022/11/17 07:09:28;;;;;;;1.40;0.90;;;21.20;57.50;;;;;;5029589;28;20061;-63
2022/11/17 07:11:54;;;;;;;0.90;0.75;;;21.20;57.60;;;;;;5031006;28;20481;-62
2022/11/17 07:14:19;;;;;;;0.98;0.80;;;21.20;57.50;;;;;;5036704;28;20029;-62
2022/11/17 07:16:45;;;;;;;0.90;0.75;;;21.20;57.60;;;;;;5018181;28;20075;-63
2022/11/17 07:19:11;;;;;;;1.05;0.80;;;21.20;57.60;;;;;;5027655;28;20030;-62
2022/11/17 07:21:37;;;;;;;1.75;0.90;;;21.20;57.60;;;;;;5026713;28;20433;-63
2022/11/17 07:24:03;;;;;;;1.23;0.70;;;21.20;57.60;;;;;;5027555;28;20029;-62
2022/11/17 07:26:29;;;;;;;1.38;0.90;;;21.10;57.60;;;;;;5035442;28;20453;-63
2022/11/17 07:28:54;;;;;;;1.30;0.85;;;21.10;57.60;;;;;;5031709;28;20029;-63
2022/11/17 07:31:20;;;;;;;1.83;0.90;;;21.20;58.10;;;;;;5028334;28;20021;-63
2022/11/17 07:33:46;;;;;;;1.58;0.82;;;21.20;57.60;;;;;;5029082;28;20083;-62
2022/11/17 07:36:16;;;;;;;1.48;0.80;;;21.20;57.60;;;;;;5036394;28;20049;-63
2022/11/17 07:38:42;;;;;;;1.23;0.85;;;21.10;57.60;;;;;;5044546;28;20040;-62
2022/11/17 07:41:09;;;;;;;1.42;0.90;;;21.10;57.60;;;;;;5039583;28;20105;-62
2022/11/17 07:43:35;;;;;;;1.15;0.77;;;21.10;57.60;;;;;;5030083;28;20025;-61
2022/11/17 07:46:05;;;;;;;1.00;0.80;;;21.10;57.60;;;;;;5035567;28;20108;-62
2022/11/17 07:48:31;;;;;;;1.77;0.88;;;21.10;57.60;;;;;;5036416;28;20421;-63
2022/11/17 07:51:01;;;;;;;1.10;0.80;;;21.10;57.60;;;;;;5039789;28;20096;-62
2022/11/17 07:53:27;;;;;;;0.70;0.70;;;21.10;57.60;;;;;;5029797;28;20028;-64
2022/11/17 07:55:54;;;;;;;1.02;0.75;;;21.10;57.60;;;;;;5032244;28;20117;-62
2022/11/17 07:58:19;;;;;;;1.50;0.90;;;21.10;57.60;;;;;;5032421;28;20447;-63
2022/11/17 08:00:45;;;;;;;1.65;1.05;;;21.10;57.60;;;;;;5034221;28;20069;-62
2022/11/17 08:03:10;;;;;;;1.00;0.68;;;21.10;57.60;;;;;;5035042;28;20033;-63
2022/11/17 08:05:38;;;;;;;1.30;1.00;;;21.10;57.60;;;;;;5033785;28;20026;-63
2022/11/17 08:08:06;;;;;;;1.23;0.80;;;21.00;57.60;;;;;;5034700;28;20096;-64
2022/11/17 08:10:33;;;;;;;1.15;0.70;;;21.10;57.60;;;;;;5034397;28;20021;-64
2022/11/17 08:12:59;;;;;;;1.50;0.80;;;21.10;57.60;;;;;;5034442;28;20040;-63
2022/11/17 08:15:26;;;;;;;0.98;0.80;;;21.00;57.60;;;;;;5026279;28;20072;-63
2022/11/17 08:17:56;;;;;;;1.35;0.82;;;21.10;58.10;;;;;;5034757;28;20060;-62
2022/11/17 08:20:23;;;;;;;1.40;0.90;;;21.10;58.10;;;;;;5026878;28;20045;-62
2022/11/17 08:22:50;;;;;;;1.40;0.90;;;21.00;57.60;;;;;;5025622;28;20382;-62
2022/11/17 08:25:17;;;;;;;1.20;0.80;;;21.10;57.60;;;;;;5035140;28;20083;-62
2022/11/17 08:27:43;;;;;;;1.05;0.70;;;21.00;57.60;;;;;;5037714;28;20026;-62
2022/11/17 08:30:09;;;;;;;1.45;0.95;;;21.00;57.60;;;;;;5029311;28;20383;-63
2022/11/17 08:32:35;;;;;;;1.92;1.00;;;21.00;57.60;;;;;;5035380;28;20021;-62
2022/11/17 08:35:05;;;;;;;1.40;0.88;;;21.00;57.60;;;;;;5039130;28;20041;-63
2022/11/17 08:37:31;;;;;;;0.80;0.70;;;21.00;57.60;;;;;;5040315;28;20104;-62
2022/11/17 08:39:56;;;;;;;1.38;0.80;;;21.00;57.60;;;;;;5028004;28;20440;-62
2022/11/17 08:42:22;;;;;;;1.50;1.00;;;21.00;57.60;;;;;;5033070;28;20108;-63
2022/11/17 08:44:48;;;;;;;1.08;0.70;;;21.00;57.60;;;;;;5040193;28;20116;-62
2022/11/17 08:47:13;;;;;;;1.33;0.88;;;21.00;57.60;;;;;;5040244;28;20430;-62
2022/11/17 08:49:39;;;;;;;1.20;1.00;;;21.00;57.60;;;;;;5035191;28;20032;-63
2022/11/17 08:52:05;;;;;;;1.50;0.90;;;21.00;57.60;;;;;;5029269;28;20540;-63
2022/11/17 08:54:31;;;;;;;1.17;0.82;;;21.00;57.60;;;;;;5032318;28;20025;-61
2022/11/17 08:56:58;;;;;;;2.65;0.90;;;21.00;57.60;;;;;;5031150;28;20128;-62
2022/11/17 08:59:24;;;;;;;1.85;1.10;;;21.00;57.60;;;;;;5021490;28;20482;-63
2022/11/17 09:01:50;;;;;;;1.02;0.90;;;21.00;57.60;;;;;;5028879;28;20088;-63
2022/11/17 09:04:16;;;;;;;1.80;0.90;;;21.00;57.60;;;;;;5023136;28;20484;-62
2022/11/17 09:06:42;;;;;;;1.30;0.85;;;21.00;57.60;;;;;;5020747;28;20026;-62
2022/11/17 09:09:07;;;;;;;1.05;0.80;;;21.00;57.60;;;;;;5031749;28;20030;-62
2022/11/17 09:11:33;;;;;;;1.17;0.82;;;21.00;57.60;;;;;;5031394;28;20389;-63
2022/11/17 09:13:59;;;;;;;1.02;0.82;;;21.00;57.60;;;;;;5027780;28;20022;-62
2022/11/17 09:16:24;;;;;;;1.90;1.00;;;21.00;57.60;;;;;;5035178;28;20033;-63
2022/11/17 09:18:57;;;;;;;1.88;0.90;;;20.90;57.60;;;;;;5036379;28;20114;-62
2022/11/17 09:21:24;;;;;;;1.10;0.88;;;21.00;58.20;;;;;;5041000;28;20033;-63
2022/11/17 09:23:50;;;;;;;1.67;0.80;;;20.90;57.60;;;;;;5046227;28;20059;-63
2022/11/17 09:26:16;;;;;;;1.20;0.80;;;20.90;57.60;;;;;;5039364;28;20026;-62
2022/11/17 09:28:43;;;;;;;1.25;0.90;;;20.90;57.60;;;;;;5036475;28;20152;-62
2022/11/17 09:31:15;;;;;;;1.65;0.90;;;20.90;57.60;;;;;;5035342;28;20033;-63
2022/11/17 09:33:41;;;;;;;1.55;0.88;;;20.90;57.60;;;;;;5034862;28;20056;-63
2022/11/17 09:36:07;;;;;;;1.52;0.90;;;20.90;57.60;;;;;;5038021;28;20472;-63
2022/11/17 09:38:34;;;;;;;1.25;0.93;;;20.90;57.60;;;;;;5030869;28;20079;-63
2022/11/17 09:41:19;;;;;;;1.88;0.90;;;20.90;57.60;;;;;;5026779;28;20112;-63
2022/11/17 09:44:17;;;;;;;1.45;0.90;;;20.90;57.60;;;;;;5030638;28;20554;-62
2022/11/17 09:47:03;;;;;;;1.60;0.90;;;20.90;57.70;;;;;;5039986;28;20025;-63
2022/11/17 09:50:02;;;;;;;1.17;0.80;;;20.90;57.60;;;;;;5033007;28;20091;-62
2022/11/17 09:52:35;;;;;;;;;;;20.90;57.70;;;;;;5033535;28;20025;-63
2022/11/17 09:55:16;;;;;;;1.63;1.10;;;20.90;57.70;;;;;;5033204;28;19999;-62
2022/11/17 09:57:50;;;;;;;1.77;0.95;;;20.90;57.70;;;;;;5031487;28;20330;-63
2022/11/17 10:00:21;;;;;;;1.48;0.93;;;20.90;57.70;;;;;;5038695;28;20073;-63
2022/11/17 10:02:49;;;;;;;1.73;0.88;;;20.90;57.70;;;;;;5035131;28;20037;-62
2022/11/17 10:05:31;;;;;;;1.80;1.10;;;20.90;57.70;;;;;;5036058;28;20037;-63
2022/11/17 10:08:28;;;;;;;1.33;0.85;;;20.90;57.70;;;;;;5040353;28;20443;-63
2022/11/17 10:10:53;;;;;;;1.40;0.90;;;20.90;57.70;;;;;;5040436;28;20052;-63
2022/11/17 10:13:22;;;;;;;1.75;0.90;;;20.90;57.70;;;;;;5033035;28;20444;-63
2022/11/17 10:15:54;;;;;;;1.90;1.10;;;20.90;57.70;;;;;;5032103;28;20055;-63
2022/11/17 10:18:20;;;;;;;1.55;1.00;;;20.90;57.70;;;;;;5035291;28;20033;-63
2022/11/17 10:20:45;;;;;;;0.88;0.80;;;20.80;57.70;;;;;;5038475;28;20037;-62
2022/11/17 10:23:17;;;;;;;1.25;0.90;;;20.80;57.70;;;;;;5039892;28;20074;-62
2022/11/17 10:25:48;;;;;;;1.38;0.90;;;20.80;57.70;;;;;;5034416;28;20025;-63
2022/11/17 10:28:30;;;;;;;1.88;1.00;;;20.80;57.70;;;;;;5037330;28;20421;-64
2022/11/17 10:31:00;;;;;;;0.93;0.80;;;20.80;57.70;;;;;;5036347;28;20058;-62
2022/11/17 10:33:35;;;;;;;1.60;0.90;;;20.80;57.70;;;;;;5034708;28;20437;-62
2022/11/17 10:36:04;;;;;;;1.55;0.85;;;20.80;57.70;;;;;;5034135;28;20028;-63
2022/11/17 10:38:29;;;;;;;1.30;0.90;;;20.80;57.70;;;;;;5039394;28;20087;-62
2022/11/17 10:40:57;;;;;;;1.20;0.90;;;20.80;57.70;;;;;;5038796;28;20484;-61
2022/11/17 10:43:33;;;;;;;1.50;0.90;;;20.80;57.70;;;;;;5033233;28;20034;-63
2022/11/17 10:46:15;;;;;;;1.73;0.98;;;20.80;57.70;;;;;;5029102;28;20034;-63
2022/11/17 10:48:56;;;;;;;1.23;0.82;;;20.80;57.70;;;;;;5019908;28;20106;-61
2022/11/17 10:51:27;;;;;;;1.52;0.90;;;20.80;57.70;;;;;;5029184;28;20021;-62
2022/11/17 10:54:04;;;;;;;0.98;0.80;;;20.80;57.70;;;;;;5032300;28;20082;-63
2022/11/17 10:56:33;;;;;;;0.95;0.77;;;20.80;57.70;;;;;;5042186;28;20031;-63
2022/11/17 10:59:19;;;;;;;1.52;0.90;;;20.80;57.70;;;;;;5035973;28;20060;-63
2022/11/17 11:01:49;;;;;;;1.35;0.85;;;20.80;57.70;;;;;;5029843;28;20555;-63
2022/11/17 11:04:35;;;;;;;1.35;1.00;;;20.80;57.70;;;;;;5038602;28;20021;-63
2022/11/17 11:07:13;;;;;;;1.20;0.80;;;20.80;57.70;;;;;;5036412;28;20071;-63
2022/11/17 11:09:54;;;;;;;1.42;0.93;;;20.80;57.70;;;;;;5039411;28;20029;-63
2022/11/17 11:12:30;;;;;;;1.10;0.77;;;20.80;57.70;;;;;;5033925;28;20057;-64
2022/11/17 11:14:58;;;;;;;1.35;0.90;;;20.80;57.70;;;;;;5037966;28;20108;-63
2022/11/17 11:17:27;;;;;;;1.30;0.90;;;20.80;57.70;;;;;;5036902;28;20105;-63
2022/11/17 11:19:53;;;;;;;1.58;1.00;;;20.80;58.20;;;;;;5033545;28;20029;-62
2022/11/17 11:22:36;;;;;;;1.05;0.80;;;20.80;57.70;;;;;;5031091;28;20034;-62
2022/11/17 11:25:14;;;;;;;1.02;0.80;;;20.80;57.70;;;;;;5021598;28;20021;-62
2022/11/17 11:27:50;;;;;;;1.50;0.90;;;20.80;57.70;;;;;;5026002;28;20026;-62
2022/11/17 11:30:17;;;;;;;1.40;0.90;;;20.80;57.70;;;;;;5032555;28;20439;-62
2022/11/17 11:33:01;;;;;;;1.33;0.80;;;20.80;57.70;;;;;;5035728;28;20031;-62
2022/11/17 11:35:29;;;;;;;1.50;1.00;;;20.80;57.70;;;;;;5029643;28;20385;-63
2022/11/17 11:38:30;;;;;;;1.50;0.90;;;20.80;57.70;;;;;;5028747;28;20677;-62
2022/11/17 11:41:18;;;;;;;1.58;0.80;;;20.80;57.70;;;;;;4962127;28;20097;-63
2022/11/17 11:44:25;;;;;;;1.33;0.80;;;20.80;57.70;;;;;;5036285;28;20447;-64
2022/11/17 11:47:25;;;;;;;1.23;0.90;;;20.80;57.70;;;;;;5035216;28;20092;-63
2022/11/17 11:50:16;;;;;;;1.60;1.00;;;20.80;57.90;;;;;;4990487;28;20049;-63
2022/11/17 11:52:50;;;;;;;1.52;0.95;;;20.80;57.80;;;;;;5036838;28;20029;-61
2022/11/17 11:55:21;;;;;;;1.17;0.80;;;20.90;57.80;;;;;;5025950;28;20044;-64
2022/11/17 11:57:59;;;;;;;2.13;0.80;;;20.90;57.80;;;;;;5035147;28;20043;-62
2022/11/17 12:00:25;;;;;;;1.07;0.77;;;20.90;57.90;;;;;;5024933;28;20037;-63
2022/11/17 12:03:12;;;;;;;1.35;0.93;;;21.00;57.90;;;;;;5029416;28;20256;-62
2022/11/17 12:06:38;;;;;;;2.00;1.00;;;20.90;57.90;;;;;;5033194;28;20029;-62
2022/11/17 12:09:17;;;;;;;1.50;0.90;;;21.00;57.80;;;;;;5036440;28;20044;-62
2022/11/17 12:11:59;;;;;;;1.65;0.82;;;21.00;58.10;;;;;;5024724;28;20048;-62
2022/11/17 12:14:26;;;;;;;1.92;0.98;;;21.00;57.40;;;;;;5032832;28;20088;-63
2022/11/17 12:17:05;;;;;;;2.00;0.80;;;21.10;57.40;;;;;;5028198;28;20035;-63
2022/11/17 12:19:54;;;;;;;1.58;0.90;;;21.10;57.20;;;;;;5035718;28;20106;-63
2022/11/17 12:22:19;;;;;;;1.42;0.82;;;21.20;57.20;;;;;;5034772;28;20576;-64
2022/11/17 12:24:45;;;;;;;1.90;1.00;;;21.20;57.10;;;;;;5036504;28;20104;-64
2022/11/17 12:27:34;;;;;;;2.47;1.15;;;21.20;57.10;;;;;;5036402;28;20025;-63
2022/11/17 12:30:03;;;;;;;1.35;0.90;;;21.30;57.00;;;;;;5014991;28;20057;-61
2022/11/17 12:32:47;;;;;;;1.35;0.80;;;21.30;57.00;;;;;;5042709;28;20034;-61
2022/11/17 12:35:25;;;;;;;2.08;1.00;;;21.30;57.10;;;;;;5039358;28;20022;-63
2022/11/17 12:38:13;;;;;;;1.42;0.80;;;21.40;57.00;;;;;;5033579;28;20037;-62
2022/11/17 12:40:48;;;;;;;1.15;0.90;;;21.40;56.90;;;;;;5037182;28;20116;-61
2022/11/17 12:43:13;;;;;;;2.17;1.00;;;21.40;56.80;;;;;;5039613;28;20040;-61
2022/11/17 12:45:51;;;;;;;1.08;0.95;;;21.40;56.90;;;;;;5029273;28;20476;-62
2022/11/17 12:48:21;;;;;;;2.30;0.93;;;21.50;56.70;;;;;;5037999;28;20063;-61
2022/11/17 12:51:00;;;;;;;1.63;0.93;;;21.50;56.60;;;;;;5033417;28;20033;-61
2022/11/17 12:53:48;;;;;;;2.17;1.00;;;21.60;56.50;;;;;;5038584;28;20160;-63
2022/11/17 12:56:38;;;;;;;1.20;0.90;;;21.60;56.40;;;;;;4984679;28;20450;-61
2022/11/17 12:59:18;;;;;;;1.77;0.90;;;21.60;56.40;;;;;;5038210;28;20037;-61
2022/11/17 13:02:19;;;;;;;1.67;0.90;;;21.60;56.50;;;;;;5042932;28;20071;-60
2022/11/17 13:05:04;;;;;;;1.60;0.90;;;21.70;56.40;;;;;;4947907;28;20551;-61
2022/11/17 13:07:30;;;;;;;1.40;0.88;;;21.70;56.30;;;;;;5029163;28;20367;-62
2022/11/17 13:09:57;;;;;;;1.75;0.90;;;21.70;56.20;;;;;;5038059;28;20128;-62
2022/11/17 13:12:31;;;;;;;1.45;0.90;;;21.70;56.10;;;;;;5040381;28;20427;-62
2022/11/17 13:15:01;;;;;;;1.42;0.95;;;21.80;56.20;;;;;;5033231;28;20438;-62
2022/11/17 13:17:29;;;;;;;;;;;21.80;56.20;;;;;;5033403;28;20492;-62
2022/11/17 13:20:18;;;;;;;1.55;0.95;;;21.80;56.10;;;;;;5028703;28;19916;-62
2022/11/17 13:23:16;;;;;;;1.35;0.93;;;21.90;56.10;;;;;;5020362;28;20037;-62
2022/11/17 13:25:42;;;;;;;1.33;0.80;;;21.90;56.10;;;;;;5037478;28;20040;-62
2022/11/17 13:28:33;;;;;;;1.73;0.90;;;21.90;56.00;;;;;;5024823;28;20018;-62
2022/11/17 13:31:00;;;;;;;1.40;0.80;;;22.00;56.00;;;;;;5040487;28;20473;-62
2022/11/17 13:33:26;;;;;;;1.25;0.80;;;22.00;55.80;;;;;;5033888;28;20052;-62
2022/11/17 13:36:28;;;;;;;1.92;0.90;;;22.00;55.80;;;;;;5039784;28;20030;-61
2022/11/17 13:38:59;;;;;;;1.80;0.90;;;22.00;55.70;;;;;;4966742;28;20097;-62
2022/11/17 13:41:26;;;;;;;1.63;1.00;;;22.00;55.70;;;;;;5024949;28;20484;-62